sensor_id;sensor_type;location;lat;lon;timestamp;P1;durP1;ratioP1;P2;durP2;ratioP2
16775;SDS011;8505;49.456;8.164;2023-05-20T00:01:38;5.45;;;2.00;;
16775;SDS011;8505;49.456;8.164;2023-05-20T00:04:06;4.60;;;1.85;;
16775;SDS011;8505;49.456;8.164;2023-05-20T00:06:34;3.83;;;1.88;;
16775;SDS011;8505;49.456;8.164;2023-05-20T00:09:03;5.18;;;2.17;;
16775;SDS011;8505;49.456;8.164;2023-05-20T00:11:31;5.13;;;2.00;;
16775;SDS011;8505;49.456;8.164;2023-05-20T00:13:59;4.22;;;2.13;;
16775;SDS011;8505;49.456;8.164;2023-05-20T00:16:27;5.20;;;2.20;;
16775;SDS011;8505;49.456;8.164;2023-05-20T00:18:54;6.30;;;2.33;;
16775;SDS011;8505;49.456;8.164;2023-05-20T00:21:23;6.18;;;2.30;;
16775;SDS011;8505;49.456;8.164;2023-05-20T00:23:51;5.22;;;2.30;;
16775;SDS011;8505;49.456;8.164;2023-05-20T00:26:20;6.03;;;2.30;;
16775;SDS011;8505;49.456;8.164;2023-05-20T00:28:48;5.80;;;2.20;;
16775;SDS011;8505;49.456;8.164;2023-05-20T00:31:15;7.18;;;2.35;;
16775;SDS011;8505;49.456;8.164;2023-05-20T00:33:43;4.75;;;2.20;;
16775;SDS011;8505;49.456;8.164;2023-05-20T00:36:11;4.65;;;1.90;;
16775;SDS011;8505;49.456;8.164;2023-05-20T00:38:39;4.75;;;2.20;;
16775;SDS011;8505;49.456;8.164;2023-05-20T00:41:06;4.13;;;2.30;;
16775;SDS011;8505;49.456;8.164;2023-05-20T00:43:36;5.60;;;2.20;;
16775;SDS011;8505;49.456;8.164;2023-05-20T00:46:04;5.47;;;2.40;;
16775;SDS011;8505;49.456;8.164;2023-05-20T00:48:34;4.65;;;2.13;;
16775;SDS011;8505;49.456;8.164;2023-05-20T00:51:06;5.80;;;2.13;;
16775;SDS011;8505;49.456;8.164;2023-05-20T00:53:34;6.03;;;2.40;;
16775;SDS011;8505;49.456;8.164;2023-05-20T00:56:03;5.70;;;2.40;;
16775;SDS011;8505;49.456;8.164;2023-05-20T00:58:32;4.88;;;2.17;;
16775;SDS011;8505;49.456;8.164;2023-05-20T01:01:03;5.00;;;2.40;;
16775;SDS011;8505;49.456;8.164;2023-05-20T01:03:31;3.85;;;2.10;;
16775;SDS011;8505;49.456;8.164;2023-05-20T01:06:00;4.45;;;2.20;;
16775;SDS011;8505;49.456;8.164;2023-05-20T01:08:28;4.00;;;2.28;;
16775;SDS011;8505;49.456;8.164;2023-05-20T01:10:58;4.38;;;2.20;;
16775;SDS011;8505;49.456;8.164;2023-05-20T01:13:31;7.53;;;2.20;;
16775;SDS011;8505;49.456;8.164;2023-05-20T01:16:04;5.07;;;2.30;;
16775;SDS011;8505;49.456;8.164;2023-05-20T01:18:35;5.65;;;2.40;;
16775;SDS011;8505;49.456;8.164;2023-05-20T01:21:06;7.43;;;2.20;;
16775;SDS011;8505;49.456;8.164;2023-05-20T01:23:39;4.97;;;2.30;;
16775;SDS011;8505;49.456;8.164;2023-05-20T01:26:07;3.47;;;2.10;;
16775;SDS011;8505;49.456;8.164;2023-05-20T01:28:39;4.93;;;2.33;;
16775;SDS011;8505;49.456;8.164;2023-05-20T01:31:10;4.95;;;2.10;;
16775;SDS011;8505;49.456;8.164;2023-05-20T01:33:42;4.30;;;2.53;;
16775;SDS011;8505;49.456;8.164;2023-05-20T01:36:10;6.22;;;2.20;;
16775;SDS011;8505;49.456;8.164;2023-05-20T01:38:40;6.22;;;2.58;;
16775;SDS011;8505;49.456;8.164;2023-05-20T01:41:09;4.07;;;2.20;;
16775;SDS011;8505;49.456;8.164;2023-05-20T01:43:38;5.25;;;2.25;;
16775;SDS011;8505;49.456;8.164;2023-05-20T01:46:07;5.05;;;2.30;;
16775;SDS011;8505;49.456;8.164;2023-05-20T01:48:34;3.50;;;2.20;;
16775;SDS011;8505;49.456;8.164;2023-05-20T01:51:03;7.03;;;2.30;;
16775;SDS011;8505;49.456;8.164;2023-05-20T01:53:31;4.18;;;2.30;;
16775;SDS011;8505;49.456;8.164;2023-05-20T01:56:00;5.40;;;2.40;;
16775;SDS011;8505;49.456;8.164;2023-05-20T01:58:28;4.85;;;2.45;;
16775;SDS011;8505;49.456;8.164;2023-05-20T02:00:56;4.03;;;2.43;;
16775;SDS011;8505;49.456;8.164;2023-05-20T02:03:24;6.90;;;2.40;;
16775;SDS011;8505;49.456;8.164;2023-05-20T02:05:51;5.82;;;2.30;;
16775;SDS011;8505;49.456;8.164;2023-05-20T02:08:19;4.55;;;2.60;;
16775;SDS011;8505;49.456;8.164;2023-05-20T02:10:47;4.20;;;2.30;;
16775;SDS011;8505;49.456;8.164;2023-05-20T02:13:17;3.97;;;2.30;;
16775;SDS011;8505;49.456;8.164;2023-05-20T02:15:44;5.40;;;2.50;;
16775;SDS011;8505;49.456;8.164;2023-05-20T02:18:12;4.55;;;2.38;;
16775;SDS011;8505;49.456;8.164;2023-05-20T02:20:44;6.35;;;2.53;;
16775;SDS011;8505;49.456;8.164;2023-05-20T02:23:12;6.03;;;2.63;;
16775;SDS011;8505;49.456;8.164;2023-05-20T02:25:40;4.90;;;2.70;;
16775;SDS011;8505;49.456;8.164;2023-05-20T02:28:08;4.55;;;2.65;;
16775;SDS011;8505;49.456;8.164;2023-05-20T02:30:37;4.57;;;2.60;;
16775;SDS011;8505;49.456;8.164;2023-05-20T02:33:05;4.68;;;2.70;;
16775;SDS011;8505;49.456;8.164;2023-05-20T02:35:35;6.80;;;2.53;;
16775;SDS011;8505;49.456;8.164;2023-05-20T02:38:03;6.78;;;2.67;;
16775;SDS011;8505;49.456;8.164;2023-05-20T02:40:30;4.72;;;2.50;;
16775;SDS011;8505;49.456;8.164;2023-05-20T02:42:59;4.88;;;2.78;;
16775;SDS011;8505;49.456;8.164;2023-05-20T02:45:27;5.35;;;2.58;;
16775;SDS011;8505;49.456;8.164;2023-05-20T02:47:56;7.28;;;2.90;;
16775;SDS011;8505;49.456;8.164;2023-05-20T02:50:24;4.78;;;2.55;;
16775;SDS011;8505;49.456;8.164;2023-05-20T02:52:52;5.72;;;2.67;;
16775;SDS011;8505;49.456;8.164;2023-05-20T02:55:20;13.32;;;2.90;;
16775;SDS011;8505;49.456;8.164;2023-05-20T02:57:48;5.88;;;2.90;;
16775;SDS011;8505;49.456;8.164;2023-05-20T03:00:16;4.60;;;2.88;;
16775;SDS011;8505;49.456;8.164;2023-05-20T03:02:44;5.22;;;2.85;;
16775;SDS011;8505;49.456;8.164;2023-05-20T03:05:14;6.32;;;2.80;;
16775;SDS011;8505;49.456;8.164;2023-05-20T03:07:41;4.47;;;2.90;;
16775;SDS011;8505;49.456;8.164;2023-05-20T03:10:11;5.95;;;2.92;;
16775;SDS011;8505;49.456;8.164;2023-05-20T03:12:40;4.80;;;2.85;;
16775;SDS011;8505;49.456;8.164;2023-05-20T03:15:08;6.55;;;2.70;;
16775;SDS011;8505;49.456;8.164;2023-05-20T03:17:37;4.57;;;2.90;;
16775;SDS011;8505;49.456;8.164;2023-05-20T03:20:08;6.20;;;3.05;;
16775;SDS011;8505;49.456;8.164;2023-05-20T03:22:39;6.57;;;3.08;;
16775;SDS011;8505;49.456;8.164;2023-05-20T03:25:07;6.78;;;2.80;;
16775;SDS011;8505;49.456;8.164;2023-05-20T03:27:35;5.22;;;2.85;;
16775;SDS011;8505;49.456;8.164;2023-05-20T03:30:04;5.05;;;3.13;;
16775;SDS011;8505;49.456;8.164;2023-05-20T03:32:32;5.30;;;3.08;;
16775;SDS011;8505;49.456;8.164;2023-05-20T03:35:00;4.57;;;2.90;;
16775;SDS011;8505;49.456;8.164;2023-05-20T03:37:28;4.25;;;2.90;;
16775;SDS011;8505;49.456;8.164;2023-05-20T03:39:57;5.93;;;3.08;;
16775;SDS011;8505;49.456;8.164;2023-05-20T03:42:25;5.70;;;3.13;;
16775;SDS011;8505;49.456;8.164;2023-05-20T03:44:53;6.68;;;2.90;;
16775;SDS011;8505;49.456;8.164;2023-05-20T03:47:20;5.57;;;3.10;;
16775;SDS011;8505;49.456;8.164;2023-05-20T03:49:48;5.20;;;3.03;;
16775;SDS011;8505;49.456;8.164;2023-05-20T03:52:16;7.57;;;3.37;;
16775;SDS011;8505;49.456;8.164;2023-05-20T03:54:44;6.10;;;3.25;;
16775;SDS011;8505;49.456;8.164;2023-05-20T03:57:13;5.45;;;3.08;;
16775;SDS011;8505;49.456;8.164;2023-05-20T03:59:41;6.47;;;3.03;;
16775;SDS011;8505;49.456;8.164;2023-05-20T04:02:09;6.15;;;3.30;;
16775;SDS011;8505;49.456;8.164;2023-05-20T04:04:37;6.55;;;3.60;;
16775;SDS011;8505;49.456;8.164;2023-05-20T04:07:08;5.30;;;3.20;;
16775;SDS011;8505;49.456;8.164;2023-05-20T04:09:36;6.40;;;3.50;;
16775;SDS011;8505;49.456;8.164;2023-05-20T04:12:04;5.68;;;3.08;;
16775;SDS011;8505;49.456;8.164;2023-05-20T04:14:34;7.25;;;3.20;;
16775;SDS011;8505;49.456;8.164;2023-05-20T04:17:02;5.93;;;2.80;;
16775;SDS011;8505;49.456;8.164;2023-05-20T04:19:31;6.00;;;3.40;;
16775;SDS011;8505;49.456;8.164;2023-05-20T04:21:59;5.22;;;3.20;;
16775;SDS011;8505;49.456;8.164;2023-05-20T04:24:27;5.72;;;3.30;;
16775;SDS011;8505;49.456;8.164;2023-05-20T04:26:55;6.82;;;3.40;;
16775;SDS011;8505;49.456;8.164;2023-05-20T04:29:22;5.65;;;3.10;;
16775;SDS011;8505;49.456;8.164;2023-05-20T04:31:51;6.22;;;3.40;;
16775;SDS011;8505;49.456;8.164;2023-05-20T04:34:19;5.95;;;3.20;;
16775;SDS011;8505;49.456;8.164;2023-05-20T04:36:52;5.93;;;3.30;;
16775;SDS011;8505;49.456;8.164;2023-05-20T04:39:19;6.40;;;3.20;;
16775;SDS011;8505;49.456;8.164;2023-05-20T04:41:47;7.10;;;3.60;;
16775;SDS011;8505;49.456;8.164;2023-05-20T04:44:16;6.63;;;3.42;;
16775;SDS011;8505;49.456;8.164;2023-05-20T04:46:44;7.07;;;3.40;;
16775;SDS011;8505;49.456;8.164;2023-05-20T04:49:13;5.47;;;3.40;;
16775;SDS011;8505;49.456;8.164;2023-05-20T04:51:41;7.43;;;3.50;;
16775;SDS011;8505;49.456;8.164;2023-05-20T04:54:09;7.13;;;3.50;;
16775;SDS011;8505;49.456;8.164;2023-05-20T04:56:36;4.50;;;3.40;;
16775;SDS011;8505;49.456;8.164;2023-05-20T04:59:05;5.35;;;3.53;;
16775;SDS011;8505;49.456;8.164;2023-05-20T05:01:34;5.80;;;3.40;;
16775;SDS011;8505;49.456;8.164;2023-05-20T05:04:02;4.78;;;3.42;;
16775;SDS011;8505;49.456;8.164;2023-05-20T05:06:32;6.18;;;3.40;;
16775;SDS011;8505;49.456;8.164;2023-05-20T05:08:59;5.35;;;3.50;;
16775;SDS011;8505;49.456;8.164;2023-05-20T05:11:27;5.40;;;3.58;;
16775;SDS011;8505;49.456;8.164;2023-05-20T05:13:55;5.50;;;3.70;;
16775;SDS011;8505;49.456;8.164;2023-05-20T05:16:22;7.00;;;3.60;;
16775;SDS011;8505;49.456;8.164;2023-05-20T05:18:50;6.70;;;3.67;;
16775;SDS011;8505;49.456;8.164;2023-05-20T05:21:18;4.95;;;3.30;;
16775;SDS011;8505;49.456;8.164;2023-05-20T05:23:47;7.07;;;3.50;;
16775;SDS011;8505;49.456;8.164;2023-05-20T05:26:15;5.65;;;3.33;;
16775;SDS011;8505;49.456;8.164;2023-05-20T05:28:43;5.85;;;3.75;;
16775;SDS011;8505;49.456;8.164;2023-05-20T05:31:11;7.95;;;3.50;;
16775;SDS011;8505;49.456;8.164;2023-05-20T05:33:39;6.25;;;3.60;;
16775;SDS011;8505;49.456;8.164;2023-05-20T05:36:06;5.90;;;3.38;;
16775;SDS011;8505;49.456;8.164;2023-05-20T05:38:34;5.97;;;3.60;;
16775;SDS011;8505;49.456;8.164;2023-05-20T05:41:03;6.50;;;3.70;;
16775;SDS011;8505;49.456;8.164;2023-05-20T05:43:31;7.03;;;3.90;;
16775;SDS011;8505;49.456;8.164;2023-05-20T05:45:59;6.65;;;3.88;;
16775;SDS011;8505;49.456;8.164;2023-05-20T05:48:27;6.25;;;3.90;;
16775;SDS011;8505;49.456;8.164;2023-05-20T05:50:55;6.57;;;3.92;;
16775;SDS011;8505;49.456;8.164;2023-05-20T05:53:23;7.37;;;3.93;;
16775;SDS011;8505;49.456;8.164;2023-05-20T05:55:50;7.38;;;4.13;;
16775;SDS011;8505;49.456;8.164;2023-05-20T05:58:19;5.53;;;3.45;;
16775;SDS011;8505;49.456;8.164;2023-05-20T06:00:49;6.43;;;3.80;;
16775;SDS011;8505;49.456;8.164;2023-05-20T06:03:18;7.15;;;3.90;;
16775;SDS011;8505;49.456;8.164;2023-05-20T06:05:46;5.13;;;3.80;;
16775;SDS011;8505;49.456;8.164;2023-05-20T06:08:14;5.53;;;3.60;;
16775;SDS011;8505;49.456;8.164;2023-05-20T06:10:45;8.27;;;4.23;;
16775;SDS011;8505;49.456;8.164;2023-05-20T06:13:14;7.35;;;4.03;;
16775;SDS011;8505;49.456;8.164;2023-05-20T06:15:43;8.13;;;4.13;;
16775;SDS011;8505;49.456;8.164;2023-05-20T06:18:11;7.93;;;4.20;;
16775;SDS011;8505;49.456;8.164;2023-05-20T06:20:39;7.55;;;3.90;;
16775;SDS011;8505;49.456;8.164;2023-05-20T06:23:07;7.70;;;4.00;;
16775;SDS011;8505;49.456;8.164;2023-05-20T06:25:35;6.43;;;3.97;;
16775;SDS011;8505;49.456;8.164;2023-05-20T06:28:03;7.55;;;4.13;;
16775;SDS011;8505;49.456;8.164;2023-05-20T06:30:31;8.25;;;4.20;;
16775;SDS011;8505;49.456;8.164;2023-05-20T06:33:00;6.22;;;4.00;;
16775;SDS011;8505;49.456;8.164;2023-05-20T06:35:28;5.30;;;4.32;;
16775;SDS011;8505;49.456;8.164;2023-05-20T06:37:56;8.27;;;4.10;;
16775;SDS011;8505;49.456;8.164;2023-05-20T06:40:24;6.85;;;4.18;;
16775;SDS011;8505;49.456;8.164;2023-05-20T06:42:52;6.82;;;4.50;;
16775;SDS011;8505;49.456;8.164;2023-05-20T06:45:20;7.00;;;4.50;;
16775;SDS011;8505;49.456;8.164;2023-05-20T06:47:48;7.43;;;4.57;;
16775;SDS011;8505;49.456;8.164;2023-05-20T06:50:17;5.97;;;4.07;;
16775;SDS011;8505;49.456;8.164;2023-05-20T06:52:45;7.40;;;4.43;;
16775;SDS011;8505;49.456;8.164;2023-05-20T06:55:14;9.07;;;4.40;;
16775;SDS011;8505;49.456;8.164;2023-05-20T06:57:41;7.30;;;4.53;;
16775;SDS011;8505;49.456;8.164;2023-05-20T07:00:10;7.40;;;4.10;;
16775;SDS011;8505;49.456;8.164;2023-05-20T07:02:40;6.93;;;4.30;;
16775;SDS011;8505;49.456;8.164;2023-05-20T07:05:08;7.47;;;4.60;;
16775;SDS011;8505;49.456;8.164;2023-05-20T07:07:38;8.50;;;4.30;;
16775;SDS011;8505;49.456;8.164;2023-05-20T07:10:06;8.48;;;4.50;;
16775;SDS011;8505;49.456;8.164;2023-05-20T07:12:35;7.80;;;4.30;;
16775;SDS011;8505;49.456;8.164;2023-05-20T07:15:03;7.27;;;4.50;;
16775;SDS011;8505;49.456;8.164;2023-05-20T07:17:31;9.27;;;4.22;;
16775;SDS011;8505;49.456;8.164;2023-05-20T07:19:59;7.10;;;4.47;;
16775;SDS011;8505;49.456;8.164;2023-05-20T07:22:27;7.40;;;4.50;;
16775;SDS011;8505;49.456;8.164;2023-05-20T07:24:56;6.85;;;4.38;;
16775;SDS011;8505;49.456;8.164;2023-05-20T07:27:24;9.13;;;4.70;;
16775;SDS011;8505;49.456;8.164;2023-05-20T07:29:52;6.70;;;4.57;;
16775;SDS011;8505;49.456;8.164;2023-05-20T07:32:20;6.97;;;4.60;;
16775;SDS011;8505;49.456;8.164;2023-05-20T07:34:48;9.37;;;4.87;;
16775;SDS011;8505;49.456;8.164;2023-05-20T07:37:16;8.60;;;4.60;;
16775;SDS011;8505;49.456;8.164;2023-05-20T07:39:43;8.35;;;4.93;;
16775;SDS011;8505;49.456;8.164;2023-05-20T07:42:13;8.20;;;4.77;;
16775;SDS011;8505;49.456;8.164;2023-05-20T07:44:41;10.13;;;4.72;;
16775;SDS011;8505;49.456;8.164;2023-05-20T07:47:09;8.07;;;4.80;;
16775;SDS011;8505;49.456;8.164;2023-05-20T07:49:36;7.18;;;4.70;;
16775;SDS011;8505;49.456;8.164;2023-05-20T07:52:04;9.75;;;4.85;;
16775;SDS011;8505;49.456;8.164;2023-05-20T07:54:33;8.63;;;5.07;;
16775;SDS011;8505;49.456;8.164;2023-05-20T07:57:01;7.40;;;4.50;;
16775;SDS011;8505;49.456;8.164;2023-05-20T07:59:31;6.60;;;4.57;;
16775;SDS011;8505;49.456;8.164;2023-05-20T08:01:59;8.23;;;4.80;;
16775;SDS011;8505;49.456;8.164;2023-05-20T08:04:26;7.90;;;4.63;;
16775;SDS011;8505;49.456;8.164;2023-05-20T08:06:54;8.23;;;4.70;;
16775;SDS011;8505;49.456;8.164;2023-05-20T08:09:22;6.45;;;4.40;;
16775;SDS011;8505;49.456;8.164;2023-05-20T08:11:50;7.45;;;4.75;;
16775;SDS011;8505;49.456;8.164;2023-05-20T08:14:18;8.43;;;5.30;;
16775;SDS011;8505;49.456;8.164;2023-05-20T08:16:47;6.93;;;5.10;;
16775;SDS011;8505;49.456;8.164;2023-05-20T08:19:19;8.75;;;5.15;;
16775;SDS011;8505;49.456;8.164;2023-05-20T08:21:47;8.73;;;5.07;;
16775;SDS011;8505;49.456;8.164;2023-05-20T08:24:14;6.43;;;4.50;;
16775;SDS011;8505;49.456;8.164;2023-05-20T08:26:42;7.63;;;4.93;;
16775;SDS011;8505;49.456;8.164;2023-05-20T08:29:10;7.57;;;4.90;;
16775;SDS011;8505;49.456;8.164;2023-05-20T08:31:38;7.40;;;4.70;;
16775;SDS011;8505;49.456;8.164;2023-05-20T08:34:07;8.27;;;4.95;;
16775;SDS011;8505;49.456;8.164;2023-05-20T08:36:35;6.85;;;4.68;;
16775;SDS011;8505;49.456;8.164;2023-05-20T08:39:02;6.87;;;5.13;;
16775;SDS011;8505;49.456;8.164;2023-05-20T08:41:30;7.57;;;4.80;;
16775;SDS011;8505;49.456;8.164;2023-05-20T08:43:58;7.28;;;4.82;;
16775;SDS011;8505;49.456;8.164;2023-05-20T08:46:27;8.03;;;4.80;;
16775;SDS011;8505;49.456;8.164;2023-05-20T08:48:56;7.83;;;4.80;;
16775;SDS011;8505;49.456;8.164;2023-05-20T08:51:26;6.67;;;4.97;;
16775;SDS011;8505;49.456;8.164;2023-05-20T08:53:54;7.72;;;5.10;;
16775;SDS011;8505;49.456;8.164;2023-05-20T08:56:22;8.88;;;5.10;;
16775;SDS011;8505;49.456;8.164;2023-05-20T08:58:55;7.47;;;5.10;;
16775;SDS011;8505;49.456;8.164;2023-05-20T09:01:23;8.37;;;4.83;;
16775;SDS011;8505;49.456;8.164;2023-05-20T09:03:51;7.57;;;4.80;;
16775;SDS011;8505;49.456;8.164;2023-05-20T09:06:19;8.68;;;5.00;;
16775;SDS011;8505;49.456;8.164;2023-05-20T09:08:48;6.80;;;4.90;;
16775;SDS011;8505;49.456;8.164;2023-05-20T09:11:18;11.73;;;5.60;;
16775;SDS011;8505;49.456;8.164;2023-05-20T09:13:47;10.30;;;5.10;;
16775;SDS011;8505;49.456;8.164;2023-05-20T09:16:16;7.77;;;5.10;;
16775;SDS011;8505;49.456;8.164;2023-05-20T09:18:45;9.88;;;5.00;;
16775;SDS011;8505;49.456;8.164;2023-05-20T09:21:13;7.60;;;5.40;;
16775;SDS011;8505;49.456;8.164;2023-05-20T09:23:45;8.43;;;5.22;;
16775;SDS011;8505;49.456;8.164;2023-05-20T09:26:14;8.60;;;5.25;;
16775;SDS011;8505;49.456;8.164;2023-05-20T09:28:44;6.35;;;4.97;;
16775;SDS011;8505;49.456;8.164;2023-05-20T09:31:12;7.55;;;5.10;;
16775;SDS011;8505;49.456;8.164;2023-05-20T09:33:41;7.57;;;5.20;;
16775;SDS011;8505;49.456;8.164;2023-05-20T09:36:09;7.88;;;5.22;;
16775;SDS011;8505;49.456;8.164;2023-05-20T09:38:40;7.20;;;4.97;;
16775;SDS011;8505;49.456;8.164;2023-05-20T09:41:09;8.27;;;5.63;;
16775;SDS011;8505;49.456;8.164;2023-05-20T09:43:40;10.35;;;5.55;;
16775;SDS011;8505;49.456;8.164;2023-05-20T09:46:08;7.88;;;5.50;;
16775;SDS011;8505;49.456;8.164;2023-05-20T09:48:37;12.48;;;5.20;;
16775;SDS011;8505;49.456;8.164;2023-05-20T09:51:08;10.50;;;5.35;;
16775;SDS011;8505;49.456;8.164;2023-05-20T09:53:38;8.75;;;5.00;;
16775;SDS011;8505;49.456;8.164;2023-05-20T09:56:08;7.23;;;5.13;;
16775;SDS011;8505;49.456;8.164;2023-05-20T09:58:36;7.25;;;5.15;;
16775;SDS011;8505;49.456;8.164;2023-05-20T10:01:06;7.15;;;5.28;;
16775;SDS011;8505;49.456;8.164;2023-05-20T10:03:35;8.63;;;5.22;;
16775;SDS011;8505;49.456;8.164;2023-05-20T10:06:10;10.43;;;5.10;;
16775;SDS011;8505;49.456;8.164;2023-05-20T10:09:01;8.65;;;5.85;;
16775;SDS011;8505;49.456;8.164;2023-05-20T10:11:43;7.70;;;5.50;;
16775;SDS011;8505;49.456;8.164;2023-05-20T10:14:21;8.70;;;5.45;;
16775;SDS011;8505;49.456;8.164;2023-05-20T10:17:02;7.88;;;5.82;;
16775;SDS011;8505;49.456;8.164;2023-05-20T10:19:37;8.60;;;5.68;;
16775;SDS011;8505;49.456;8.164;2023-05-20T10:22:05;5.93;;;4.97;;
16775;SDS011;8505;49.456;8.164;2023-05-20T10:24:35;7.95;;;5.60;;
16775;SDS011;8505;49.456;8.164;2023-05-20T10:27:07;7.63;;;6.07;;
16775;SDS011;8505;49.456;8.164;2023-05-20T10:29:42;9.65;;;5.78;;
16775;SDS011;8505;49.456;8.164;2023-05-20T10:32:21;8.45;;;5.53;;
16775;SDS011;8505;49.456;8.164;2023-05-20T10:34:50;6.57;;;5.10;;
16775;SDS011;8505;49.456;8.164;2023-05-20T10:37:26;10.45;;;5.78;;
16775;SDS011;8505;49.456;8.164;2023-05-20T10:40:06;6.13;;;5.20;;
16775;SDS011;8505;49.456;8.164;2023-05-20T10:42:35;8.88;;;5.88;;
16775;SDS011;8505;49.456;8.164;2023-05-20T10:45:03;7.27;;;5.30;;
16775;SDS011;8505;49.456;8.164;2023-05-20T10:47:33;7.03;;;5.50;;
16775;SDS011;8505;49.456;8.164;2023-05-20T10:50:01;8.55;;;5.38;;
16775;SDS011;8505;49.456;8.164;2023-05-20T10:52:32;8.95;;;5.30;;
16775;SDS011;8505;49.456;8.164;2023-05-20T10:55:00;6.87;;;5.10;;
16775;SDS011;8505;49.456;8.164;2023-05-20T10:57:28;7.50;;;5.35;;
16775;SDS011;8505;49.456;8.164;2023-05-20T10:59:57;7.70;;;5.70;;
16775;SDS011;8505;49.456;8.164;2023-05-20T11:02:26;6.15;;;4.93;;
16775;SDS011;8505;49.456;8.164;2023-05-20T11:04:56;7.15;;;4.90;;
16775;SDS011;8505;49.456;8.164;2023-05-20T11:07:24;6.80;;;5.25;;
16775;SDS011;8505;49.456;8.164;2023-05-20T11:09:54;7.47;;;4.90;;
16775;SDS011;8505;49.456;8.164;2023-05-20T11:12:22;6.53;;;4.87;;
16775;SDS011;8505;49.456;8.164;2023-05-20T11:14:51;6.85;;;5.00;;
16775;SDS011;8505;49.456;8.164;2023-05-20T11:17:19;7.50;;;5.15;;
16775;SDS011;8505;49.456;8.164;2023-05-20T11:19:47;7.00;;;5.00;;
16775;SDS011;8505;49.456;8.164;2023-05-20T11:22:17;6.90;;;5.15;;
16775;SDS011;8505;49.456;8.164;2023-05-20T11:24:45;8.27;;;5.05;;
16775;SDS011;8505;49.456;8.164;2023-05-20T11:27:12;7.10;;;5.20;;
16775;SDS011;8505;49.456;8.164;2023-05-20T11:29:40;8.38;;;5.28;;
16775;SDS011;8505;49.456;8.164;2023-05-20T11:32:08;7.75;;;5.38;;
16775;SDS011;8505;49.456;8.164;2023-05-20T11:34:37;7.03;;;5.20;;
16775;SDS011;8505;49.456;8.164;2023-05-20T11:37:06;8.88;;;5.20;;
16775;SDS011;8505;49.456;8.164;2023-05-20T11:39:36;7.13;;;5.30;;
16775;SDS011;8505;49.456;8.164;2023-05-20T11:42:04;8.33;;;5.70;;
16775;SDS011;8505;49.456;8.164;2023-05-20T11:44:32;7.80;;;5.20;;
16775;SDS011;8505;49.456;8.164;2023-05-20T11:47:00;7.18;;;6.05;;
16775;SDS011;8505;49.456;8.164;2023-05-20T11:49:29;8.63;;;5.50;;
16775;SDS011;8505;49.456;8.164;2023-05-20T11:52:06;6.68;;;5.43;;
16775;SDS011;8505;49.456;8.164;2023-05-20T11:54:37;8.25;;;5.60;;
16775;SDS011;8505;49.456;8.164;2023-05-20T11:57:04;7.13;;;5.28;;
16775;SDS011;8505;49.456;8.164;2023-05-20T11:59:32;7.10;;;5.50;;
16775;SDS011;8505;49.456;8.164;2023-05-20T12:02:02;8.57;;;5.23;;
16775;SDS011;8505;49.456;8.164;2023-05-20T12:04:30;7.40;;;5.20;;
16775;SDS011;8505;49.456;8.164;2023-05-20T12:06:58;7.53;;;5.00;;
16775;SDS011;8505;49.456;8.164;2023-05-20T12:09:26;9.32;;;5.60;;
16775;SDS011;8505;49.456;8.164;2023-05-20T12:11:55;6.93;;;5.20;;
16775;SDS011;8505;49.456;8.164;2023-05-20T12:14:24;8.65;;;5.60;;
16775;SDS011;8505;49.456;8.164;2023-05-20T12:16:52;8.35;;;5.30;;
16775;SDS011;8505;49.456;8.164;2023-05-20T12:19:20;7.05;;;5.35;;
16775;SDS011;8505;49.456;8.164;2023-05-20T12:21:48;6.72;;;4.85;;
16775;SDS011;8505;49.456;8.164;2023-05-20T12:24:17;6.65;;;4.97;;
16775;SDS011;8505;49.456;8.164;2023-05-20T12:26:45;8.13;;;5.43;;
16775;SDS011;8505;49.456;8.164;2023-05-20T12:29:15;9.02;;;5.47;;
16775;SDS011;8505;49.456;8.164;2023-05-20T12:31:43;7.60;;;5.30;;
16775;SDS011;8505;49.456;8.164;2023-05-20T12:34:10;8.82;;;5.50;;
16775;SDS011;8505;49.456;8.164;2023-05-20T12:36:38;7.82;;;5.82;;
16775;SDS011;8505;49.456;8.164;2023-05-20T12:39:06;8.00;;;5.50;;
16775;SDS011;8505;49.456;8.164;2023-05-20T12:41:34;7.82;;;5.93;;
16775;SDS011;8505;49.456;8.164;2023-05-20T12:44:02;9.63;;;6.38;;
16775;SDS011;8505;49.456;8.164;2023-05-20T12:46:31;9.23;;;5.80;;
16775;SDS011;8505;49.456;8.164;2023-05-20T12:48:59;8.02;;;6.00;;
16775;SDS011;8505;49.456;8.164;2023-05-20T12:51:27;10.38;;;6.20;;
16775;SDS011;8505;49.456;8.164;2023-05-20T12:53:55;8.15;;;5.97;;
16775;SDS011;8505;49.456;8.164;2023-05-20T12:56:22;8.50;;;5.80;;
16775;SDS011;8505;49.456;8.164;2023-05-20T12:58:51;10.77;;;5.88;;
16775;SDS011;8505;49.456;8.164;2023-05-20T13:01:19;9.63;;;6.07;;
16775;SDS011;8505;49.456;8.164;2023-05-20T13:03:48;9.18;;;6.00;;
16775;SDS011;8505;49.456;8.164;2023-05-20T13:06:18;7.50;;;6.03;;
16775;SDS011;8505;49.456;8.164;2023-05-20T13:08:46;8.27;;;5.90;;
16775;SDS011;8505;49.456;8.164;2023-05-20T13:11:14;8.13;;;6.20;;
16775;SDS011;8505;49.456;8.164;2023-05-20T13:13:42;8.85;;;5.97;;
16775;SDS011;8505;49.456;8.164;2023-05-20T13:16:10;9.47;;;6.00;;
16775;SDS011;8505;49.456;8.164;2023-05-20T13:18:37;7.40;;;5.80;;
16775;SDS011;8505;49.456;8.164;2023-05-20T13:21:06;10.57;;;6.07;;
16775;SDS011;8505;49.456;8.164;2023-05-20T13:23:34;8.60;;;5.80;;
16775;SDS011;8505;49.456;8.164;2023-05-20T13:26:03;7.53;;;5.85;;
16775;SDS011;8505;49.456;8.164;2023-05-20T13:28:31;7.50;;;5.53;;
16775;SDS011;8505;49.456;8.164;2023-05-20T13:31:00;10.80;;;6.28;;
16775;SDS011;8505;49.456;8.164;2023-05-20T13:33:28;8.52;;;6.20;;
16775;SDS011;8505;49.456;8.164;2023-05-20T13:35:56;9.73;;;6.40;;
16775;SDS011;8505;49.456;8.164;2023-05-20T13:38:26;7.45;;;6.32;;
16775;SDS011;8505;49.456;8.164;2023-05-20T13:40:53;9.45;;;6.55;;
16775;SDS011;8505;49.456;8.164;2023-05-20T13:43:24;8.80;;;6.60;;
16775;SDS011;8505;49.456;8.164;2023-05-20T13:45:53;8.52;;;6.40;;
16775;SDS011;8505;49.456;8.164;2023-05-20T13:48:21;9.55;;;6.95;;
16775;SDS011;8505;49.456;8.164;2023-05-20T13:50:49;9.75;;;6.80;;
16775;SDS011;8505;49.456;8.164;2023-05-20T13:53:17;9.40;;;6.63;;
16775;SDS011;8505;49.456;8.164;2023-05-20T13:55:47;8.93;;;6.80;;
16775;SDS011;8505;49.456;8.164;2023-05-20T13:58:14;10.25;;;6.97;;
16775;SDS011;8505;49.456;8.164;2023-05-20T14:00:42;9.03;;;7.07;;
16775;SDS011;8505;49.456;8.164;2023-05-20T14:03:10;10.77;;;6.93;;
16775;SDS011;8505;49.456;8.164;2023-05-20T14:05:38;8.65;;;6.70;;
16775;SDS011;8505;49.456;8.164;2023-05-20T14:08:07;10.55;;;6.78;;
16775;SDS011;8505;49.456;8.164;2023-05-20T14:10:35;10.15;;;6.93;;
16775;SDS011;8505;49.456;8.164;2023-05-20T14:13:05;10.15;;;7.22;;
16775;SDS011;8505;49.456;8.164;2023-05-20T14:15:34;8.88;;;6.38;;
16775;SDS011;8505;49.456;8.164;2023-05-20T14:18:02;10.20;;;6.72;;
16775;SDS011;8505;49.456;8.164;2023-05-20T14:20:30;9.57;;;6.88;;
16775;SDS011;8505;49.456;8.164;2023-05-20T14:22:58;8.27;;;6.63;;
16775;SDS011;8505;49.456;8.164;2023-05-20T14:25:26;9.98;;;7.25;;
16775;SDS011;8505;49.456;8.164;2023-05-20T14:27:54;8.70;;;7.20;;
16775;SDS011;8505;49.456;8.164;2023-05-20T14:30:24;12.77;;;7.18;;
16775;SDS011;8505;49.456;8.164;2023-05-20T14:32:52;9.32;;;6.82;;
16775;SDS011;8505;49.456;8.164;2023-05-20T14:35:20;10.40;;;6.82;;
16775;SDS011;8505;49.456;8.164;2023-05-20T14:37:48;9.35;;;6.88;;
16775;SDS011;8505;49.456;8.164;2023-05-20T14:40:16;10.07;;;6.75;;
16775;SDS011;8505;49.456;8.164;2023-05-20T14:42:44;8.30;;;6.93;;
16775;SDS011;8505;49.456;8.164;2023-05-20T14:45:11;8.05;;;6.55;;
16775;SDS011;8505;49.456;8.164;2023-05-20T14:47:41;11.68;;;7.15;;
16775;SDS011;8505;49.456;8.164;2023-05-20T14:50:09;10.45;;;7.65;;
16775;SDS011;8505;49.456;8.164;2023-05-20T14:52:37;9.55;;;7.50;;
16775;SDS011;8505;49.456;8.164;2023-05-20T14:55:05;10.47;;;7.20;;
16775;SDS011;8505;49.456;8.164;2023-05-20T14:57:33;10.85;;;7.57;;
16775;SDS011;8505;49.456;8.164;2023-05-20T15:00:01;10.00;;;7.20;;
16775;SDS011;8505;49.456;8.164;2023-05-20T15:02:30;10.32;;;7.40;;
16775;SDS011;8505;49.456;8.164;2023-05-20T15:04:59;12.02;;;8.13;;
16775;SDS011;8505;49.456;8.164;2023-05-20T15:07:27;11.17;;;7.90;;
16775;SDS011;8505;49.456;8.164;2023-05-20T15:09:55;9.48;;;8.05;;